Time;durP1;ratioP1;P1;durP2;ratioP2;P2;SDS_P1;SDS_P2;PMS_P1;PMS_P2;Temp;Humidity;BMP_temperature;BMP_pressure;BME280_temperature;BME280_humidity;BME280_pressure;Samples;Min_cycle;Max_cycle;Signal;HPM_P1;HPM_P2
2022/04/19 00:00:29;;;;;;;24.73;12.23;;;8.30;83.00;;;;;;5157026;27;20125;-74
2022/04/19 00:02:55;;;;;;;23.35;11.77;;;8.30;83.60;;;;;;5156952;27;20122;-74
2022/04/19 00:05:20;;;;;;;20.45;10.65;;;8.20;83.60;;;;;;5137916;27;20043;-75
2022/04/19 00:07:46;;;;;;;22.63;11.23;;;8.20;84.60;;;;;;5156634;27;20126;-74
2022/04/19 00:10:12;;;;;;;22.88;10.07;;;8.10;85.20;;;;;;5138451;27;20046;-75
2022/04/19 00:12:38;;;;;;;21.33;10.65;;;8.10;86.10;;;;;;5138701;27;20542;-74
2022/04/19 00:15:05;;;;;;;21.05;10.73;;;8.00;86.20;;;;;;5156657;27;20043;-74
2022/04/19 00:17:32;;;;;;;18.20;9.35;;;8.00;87.90;;;;;;5157377;27;20086;-75
2022/04/19 00:19:58;;;;;;;17.30;9.45;;;7.90;88.30;;;;;;5156700;27;20495;-75
2022/04/19 00:22:23;;;;;;;18.40;8.68;;;7.90;90.10;;;;;;5120743;27;20042;-74
2022/04/19 00:24:49;;;;;;;14.70;8.15;;;7.90;90.50;;;;;;5121167;27;20038;-75
2022/04/19 00:27:15;;;;;;;15.88;7.97;;;7.80;90.80;;;;;;5156174;27;20129;-73
2022/04/19 00:29:41;;;;;;;13.88;7.50;;;7.80;91.30;;;;;;5156541;27;20480;-75
2022/04/19 00:32:11;;;;;;;15.47;7.37;;;7.70;92.20;;;;;;5137798;27;20057;-74
2022/04/19 00:34:38;;;;;;;14.45;7.20;;;7.70;91.50;;;;;;5120729;27;20035;-74
2022/04/19 00:37:05;;;;;;;;;;;7.70;91.70;;;;;;5156878;27;20059;-73
2022/04/19 00:39:31;;;;;;;13.43;7.03;;;7.60;92.80;;;;;;5120694;27;19933;-75
2022/04/19 00:41:56;;;;;;;17.77;8.32;;;7.50;92.00;;;;;;5120324;27;20059;-75
2022/04/19 00:44:25;;;;;;;16.33;7.72;;;7.60;91.80;;;;;;5137370;27;20050;-74
2022/04/19 00:46:51;;;;;;;13.73;7.47;;;7.50;91.90;;;;;;5155884;27;20053;-75
2022/04/19 00:49:17;;;;;;;15.95;8.55;;;7.50;92.80;;;;;;5137398;27;20047;-73
2022/04/19 00:51:46;;;;;;;16.35;7.70;;;7.40;93.20;;;;;;5156059;27;20489;-73
2022/04/19 00:54:14;;;;;;;15.07;7.97;;;7.40;93.60;;;;;;5120006;27;20046;-74
2022/04/19 00:56:41;;;;;;;18.40;8.45;;;7.40;93.30;;;;;;5138191;27;20095;-75
2022/04/19 00:59:10;;;;;;;20.58;8.30;;;7.30;93.30;;;;;;5137094;27;20043;-74
2022/04/19 01:01:37;;;;;;;14.02;8.05;;;7.20;94.70;;;;;;5137691;27;20095;-75
2022/04/19 01:04:03;;;;;;;;;;;7.20;95.40;;;;;;5121118;27;20049;-75
2022/04/19 01:06:29;;;;;;;16.70;7.78;;;7.20;96.70;;;;;;5136049;27;20215;-74
2022/04/19 01:08:55;;;;;;;16.90;8.43;;;7.10;95.60;;;;;;5155603;27;20089;-75
2022/04/19 01:14:06;;;;;;;14.75;7.53;;;7.10;98.10;;;;;;5155511;27;20104;-74
2022/04/19 01:16:32;;;;;;;15.27;8.52;;;7.00;98.70;;;;;;5155066;27;20042;-75
2022/04/19 01:18:58;;;;;;;17.70;8.85;;;6.90;97.20;;;;;;5136786;27;20042;-73
2022/04/19 01:21:26;;;;;;;15.32;8.20;;;6.90;98.10;;;;;;5136349;27;20138;-76
2022/04/19 01:23:52;;;;;;;17.55;9.00;;;6.90;98.20;;;;;;5154830;27;20078;-76
2022/04/19 01:26:18;;;;;;;20.58;9.30;;;7.00;98.30;;;;;;5119451;27;20175;-75
2022/04/19 01:28:45;;;;;;;18.55;8.98;;;7.00;99.20;;;;;;5155012;27;20042;-75
2022/04/19 01:31:11;;;;;;;22.45;8.90;;;6.90;99.30;;;;;;5119502;27;20050;-74
2022/04/19 01:33:37;;;;;;;15.38;8.75;;;6.90;99.10;;;;;;5119686;27;20058;-75
2022/04/19 01:36:03;;;;;;;16.55;9.05;;;6.90;99.40;;;;;;5155178;27;20068;-75
2022/04/19 01:38:29;;;;;;;20.40;9.45;;;6.90;99.60;;;;;;5136054;27;20155;-75
2022/04/19 01:40:55;;;;;;;17.33;8.95;;;6.80;99.90;;;;;;5154993;27;20478;-75
2022/04/19 01:43:20;;;;;;;17.92;8.20;;;6.80;99.90;;;;;;5136334;27;20114;-75
2022/04/19 01:45:46;;;;;;;17.15;8.75;;;6.70;99.90;;;;;;5154992;27;20042;-75
2022/04/19 01:48:12;;;;;;;17.45;9.40;;;6.60;99.90;;;;;;5136905;27;20046;-75
2022/04/19 01:50:39;;;;;;;20.10;9.38;;;6.70;99.90;;;;;;5137043;27;20047;-75
2022/04/19 01:53:05;;;;;;;22.50;10.23;;;6.50;99.90;;;;;;5136709;27;20051;-75
2022/04/19 01:55:30;;;;;;;20.33;9.55;;;6.60;99.90;;;;;;5119182;27;20055;-75
2022/04/19 01:57:58;;;;;;;18.75;9.43;;;6.60;99.90;;;;;;5119340;27;20413;-76
2022/04/19 02:00:31;;;;;;;16.80;8.10;;;6.60;99.90;;;;;;5154407;27;20133;-75
2022/04/19 02:02:57;;;;;;;18.52;8.77;;;6.60;99.90;;;;;;5136484;27;20053;-74
2022/04/19 02:05:24;;;;;;;19.83;9.37;;;6.60;99.90;;;;;;5119962;27;20077;-75
2022/04/19 02:07:50;;;;;;;16.90;8.40;;;6.60;99.90;;;;;;5154887;27;20443;-75
2022/04/19 02:10:18;;;;;;;18.88;9.10;;;6.60;99.90;;;;;;5136881;27;20046;-75
2022/04/19 02:12:44;;;;;;;25.15;9.05;;;6.60;99.90;;;;;;5136313;27;20495;-75
2022/04/19 02:15:11;;;;;;;19.92;8.25;;;6.50;99.90;;;;;;5135870;27;20043;-75
2022/04/19 02:17:49;;;;;;;;;;;6.50;99.90;;;;;;5154589;27;20095;-75
2022/04/19 02:20:17;;;;;;;17.95;8.27;;;6.50;99.90;;;;;;5119496;27;19967;-75
2022/04/19 02:22:43;;;;;;;17.77;8.68;;;6.50;99.90;;;;;;5119127;27;20072;-75
2022/04/19 02:25:11;;;;;;;16.17;8.73;;;6.50;99.90;;;;;;5136747;27;20058;-76
2022/04/19 02:27:39;;;;;;;18.25;9.07;;;6.40;99.90;;;;;;5136328;27;20046;-76
2022/04/19 02:30:15;;;;;;;21.38;8.57;;;6.40;99.90;;;;;;5136735;27;20062;-75
2022/04/19 02:32:43;;;;;;;18.42;9.05;;;6.40;99.90;;;;;;5103442;27;20065;-76
2022/04/19 02:35:09;;;;;;;20.85;8.77;;;6.40;99.90;;;;;;5154812;27;20501;-75
2022/04/19 02:37:36;;;;;;;19.13;8.60;;;6.30;99.90;;;;;;5119301;27;20082;-75
2022/04/19 02:40:02;;;;;;;19.38;8.57;;;6.30;99.90;;;;;;5119478;27;20043;-75
2022/04/19 02:42:28;;;;;;;21.45;9.40;;;6.30;99.90;;;;;;5131801;28;20055;-75
2022/04/19 02:44:54;;;;;;;19.73;9.82;;;6.20;99.90;;;;;;5115433;28;20062;-76
2022/04/19 02:47:19;;;;;;;21.45;9.27;;;6.30;99.90;;;;;;5097636;28;20039;-75
2022/04/19 02:49:45;;;;;;;20.92;10.45;;;6.20;99.90;;;;;;5115022;28;20103;-75
2022/04/19 02:52:12;;;;;;;23.08;12.02;;;6.20;99.90;;;;;;5134016;27;20043;-75
2022/04/19 02:54:37;;;;;;;21.75;11.27;;;6.20;99.90;;;;;;5133527;27;20522;-76
2022/04/19 02:57:04;;;;;;;23.55;10.98;;;6.10;99.90;;;;;;5115631;28;20126;-76
2022/04/19 02:59:30;;;;;;;20.08;10.02;;;6.10;99.90;;;;;;5115787;28;20078;-75
2022/04/19 03:01:56;;;;;;;25.38;11.75;;;6.10;99.90;;;;;;5115554;28;20394;-75
2022/04/19 03:04:22;;;;;;;21.67;10.98;;;6.10;99.90;;;;;;5133166;28;20047;-75
2022/04/19 03:06:48;;;;;;;23.95;10.68;;;6.10;99.90;;;;;;5115729;28;20062;-74
2022/04/19 03:09:13;;;;;;;21.40;11.10;;;6.10;99.90;;;;;;5132362;28;20043;-75
2022/04/19 03:11:39;;;;;;;18.33;10.23;;;6.00;99.90;;;;;;5132545;28;20043;-75
2022/04/19 03:14:06;;;;;;;22.75;10.77;;;6.00;99.90;;;;;;5115443;28;20146;-75
2022/04/19 03:16:32;;;;;;;;;;;6.00;99.90;;;;;;5115299;28;20051;-75
2022/04/19 03:18:58;;;;;;;22.15;10.55;;;6.00;99.90;;;;;;5132074;28;20018;-75
2022/04/19 03:21:24;;;;;;;23.20;9.82;;;6.00;99.90;;;;;;5133315;28;20103;-76
2022/04/19 03:29:19;;;;;;;25.27;10.68;;;5.90;99.90;;;;;;5134854;27;20051;-75
2022/04/19 03:31:45;;;;;;;21.13;10.55;;;5.90;99.90;;;;;;5136688;27;20067;-74
2022/04/19 03:34:11;;;;;;;24.35;10.20;;;5.80;99.90;;;;;;5101558;27;20095;-74
2022/04/19 03:36:37;;;;;;;22.88;10.85;;;5.80;99.90;;;;;;5136533;27;20066;-75
2022/04/19 03:39:03;;;;;;;22.00;11.02;;;5.80;99.90;;;;;;5136135;27;20126;-75
2022/04/19 03:41:29;;;;;;;26.05;12.43;;;5.80;99.90;;;;;;5120339;27;20147;-75
2022/04/19 03:43:55;;;;;;;25.70;11.52;;;5.80;99.90;;;;;;5138810;27;20125;-74
2022/04/19 03:46:21;;;;;;;24.38;10.68;;;5.80;99.90;;;;;;5138461;27;20121;-75
2022/04/19 03:48:47;;;;;;;23.58;10.55;;;5.80;99.90;;;;;;5157134;27;20038;-75
2022/04/19 03:51:12;;;;;;;21.80;10.63;;;5.80;99.90;;;;;;5121338;27;20041;-75
2022/04/19 03:53:38;;;;;;;27.85;11.32;;;5.80;99.90;;;;;;5156945;27;20038;-75
2022/04/19 03:56:05;;;;;;;26.10;10.57;;;5.70;99.90;;;;;;5137924;27;20099;-74
2022/04/19 03:58:32;;;;;;;24.03;10.87;;;5.80;99.90;;;;;;5156511;27;20047;-75
2022/04/19 04:00:59;;;;;;;23.13;11.10;;;5.80;99.90;;;;;;5156714;27;20055;-75
2022/04/19 04:03:24;;;;;;;24.90;10.90;;;5.90;99.90;;;;;;5121358;27;20046;-76
2022/04/19 04:05:50;;;;;;;24.75;11.18;;;5.90;99.90;;;;;;5138047;27;20083;-75
2022/04/19 04:08:16;;;;;;;26.20;12.25;;;5.90;99.90;;;;;;5138255;27;20096;-74
2022/04/19 04:10:43;;;;;;;27.67;11.85;;;6.00;99.90;;;;;;5138548;27;20078;-75
2022/04/19 04:13:09;;;;;;;26.45;12.50;;;6.00;99.90;;;;;;5156202;27;20053;-75
2022/04/19 04:15:35;;;;;;;31.30;12.52;;;6.00;99.90;;;;;;5120418;27;20482;-75
2022/04/19 04:18:01;;;;;;;28.27;12.43;;;6.00;99.90;;;;;;5120723;27;20075;-75
2022/04/19 04:20:26;;;;;;;32.45;12.65;;;6.10;99.90;;;;;;5120675;27;20045;-75
2022/04/19 04:22:52;;;;;;;25.88;12.55;;;6.00;99.90;;;;;;5121753;27;20050;-76
2022/04/19 04:25:18;;;;;;;29.20;11.88;;;6.00;99.90;;;;;;5120932;27;20103;-74
2022/04/19 04:27:44;;;;;;;27.98;13.05;;;6.00;99.90;;;;;;5156196;27;20091;-74
2022/04/19 04:30:10;;;;;;;23.85;11.68;;;6.00;99.90;;;;;;5138373;27;20046;-74
2022/04/19 04:32:36;;;;;;;22.77;11.75;;;6.00;99.90;;;;;;5104460;27;20078;-74
2022/04/19 04:35:02;;;;;;;27.10;12.32;;;5.90;99.90;;;;;;5120514;27;20089;-75
2022/04/19 04:37:28;;;;;;;27.67;13.00;;;5.90;99.90;;;;;;5137194;27;20512;-75
2022/04/19 04:39:55;;;;;;;28.17;12.23;;;5.80;99.90;;;;;;5136861;27;20043;-74
2022/04/19 04:42:21;;;;;;;29.42;12.68;;;5.90;99.90;;;;;;5133617;27;20065;-74
2022/04/19 04:44:47;;;;;;;30.15;12.55;;;5.90;99.90;;;;;;5134113;27;20059;-74
2022/04/19 04:50:01;;;;;;;30.17;12.48;;;5.90;99.90;;;;;;5135492;27;20062;-75
2022/04/19 04:52:26;;;;;;;29.90;12.97;;;6.00;99.90;;;;;;5134822;27;20050;-75
2022/04/19 04:54:52;;;;;;;29.63;12.13;;;6.10;99.90;;;;;;5133825;27;20137;-76
2022/04/19 04:57:21;;;;;;;27.50;12.55;;;6.10;99.90;;;;;;5133977;27;20402;-76
2022/04/19 04:59:48;;;;;;;27.38;11.73;;;6.20;99.90;;;;;;5136832;27;20159;-75
2022/04/19 05:02:14;;;;;;;25.48;11.45;;;6.30;99.90;;;;;;5137436;27;20080;-73
2022/04/19 05:04:40;;;;;;;30.38;12.90;;;6.40;99.90;;;;;;5140823;27;20039;-76
2022/04/19 05:07:06;;;;;;;29.08;12.38;;;6.50;99.90;;;;;;5107121;27;20055;-74
2022/04/19 05:09:32;;;;;;;28.13;11.77;;;6.60;99.90;;;;;;5142523;27;20055;-74
2022/04/19 05:11:57;;;;;;;26.65;11.88;;;6.60;99.90;;;;;;5141360;27;20090;-74
2022/04/19 05:14:23;;;;;;;26.85;12.80;;;6.70;99.90;;;;;;5125754;27;20055;-75
2022/04/19 05:16:49;;;;;;;25.23;12.25;;;6.80;99.90;;;;;;5127319;27;20115;-73
2022/04/19 05:19:15;;;;;;;30.35;12.75;;;6.80;99.90;;;;;;5145255;27;20043;-75
2022/04/19 05:21:41;;;;;;;27.42;12.15;;;6.90;99.90;;;;;;5126038;27;20065;-76
2022/04/19 05:24:08;;;;;;;25.42;12.70;;;7.00;99.90;;;;;;5123991;27;20065;-74
2022/04/19 05:26:35;;;;;;;28.30;12.65;;;7.00;99.90;;;;;;5107399;27;20131;-75
2022/04/19 05:29:01;;;;;;;29.30;12.98;;;7.10;99.90;;;;;;5123546;27;20341;-73
2022/04/19 05:31:27;;;;;;;25.88;12.25;;;7.30;99.90;;;;;;5140474;27;20058;-73
2022/04/19 05:33:53;;;;;;;29.77;12.50;;;7.30;99.90;;;;;;5141370;27;20047;-74
2022/04/19 05:36:18;;;;;;;23.58;11.93;;;7.40;99.90;;;;;;5140325;27;20043;-75
2022/04/19 05:38:44;;;;;;;28.85;11.98;;;7.50;99.90;;;;;;5118277;27;20100;-74
2022/04/19 05:41:10;;;;;;;24.25;11.98;;;7.60;99.90;;;;;;5134947;27;20059;-76
2022/04/19 05:43:36;;;;;;;28.10;12.15;;;7.70;99.90;;;;;;5099514;27;20058;-77
2022/04/19 05:46:02;;;;;;;25.17;13.32;;;7.80;99.90;;;;;;5118117;27;20082;-75
2022/04/19 05:48:28;;;;;;;27.73;13.13;;;7.90;99.90;;;;;;5136189;27;20138;-75
2022/04/19 05:50:54;;;;;;;24.20;12.45;;;7.90;99.90;;;;;;5138069;27;20099;-76
2022/04/19 05:53:20;;;;;;;25.15;12.63;;;7.90;99.90;;;;;;5134877;27;20043;-74
2022/04/19 05:55:46;;;;;;;25.73;11.70;;;8.00;99.90;;;;;;5118269;27;20043;-75
2022/04/19 05:58:13;;;;;;;21.95;11.90;;;8.10;99.90;;;;;;5117901;27;20121;-76
2022/04/19 06:00:39;;;;;;;26.27;12.35;;;8.20;99.90;;;;;;5101159;27;20058;-76
2022/04/19 06:05:49;;;;;;;26.30;13.20;;;8.40;99.90;;;;;;5136390;27;20086;-75
2022/04/19 06:08:14;;;;;;;24.80;11.60;;;8.50;99.90;;;;;;5139028;27;20355;-75
2022/04/19 06:10:41;;;;;;;22.20;11.18;;;8.50;99.90;;;;;;5102457;27;20051;-74
2022/04/19 06:13:08;;;;;;;24.75;11.63;;;8.60;99.90;;;;;;5136314;27;20073;-76
2022/04/19 06:15:35;;;;;;;25.80;12.40;;;8.60;99.90;;;;;;5117928;27;20111;-75
2022/04/19 06:18:00;;;;;;;23.45;11.88;;;8.70;99.90;;;;;;5134272;27;20084;-75
2022/04/19 06:20:26;;;;;;;24.05;11.27;;;8.70;99.90;;;;;;5134494;27;20408;-74
2022/04/19 06:22:52;;;;;;;23.17;11.25;;;8.80;99.90;;;;;;5133979;27;20054;-74
2022/04/19 06:25:18;;;;;;;19.90;10.73;;;8.80;99.90;;;;;;5116012;28;20047;-74
2022/04/19 06:27:45;;;;;;;27.75;11.20;;;8.90;99.90;;;;;;5134780;27;20035;-75
2022/04/19 06:30:11;;;;;;;22.57;11.03;;;9.00;99.90;;;;;;5115462;28;20475;-74
2022/04/19 06:32:36;;;;;;;24.08;10.43;;;9.00;99.90;;;;;;5133142;28;20433;-75
2022/04/19 06:35:03;;;;;;;22.43;10.57;;;9.10;99.90;;;;;;5133825;28;20470;-75
2022/04/19 06:37:30;;;;;;;20.10;10.43;;;9.20;99.90;;;;;;5115261;28;20357;-74
2022/04/19 06:40:04;;;;;;;21.55;9.68;;;9.30;99.90;;;;;;5133409;27;20475;-75
2022/04/19 06:42:30;;;;;;;24.73;9.85;;;9.40;99.90;;;;;;5114955;28;20193;-76
2022/04/19 06:44:56;;;;;;;18.98;8.80;;;9.50;99.90;;;;;;5115314;28;20055;-75
2022/04/19 06:47:24;;;;;;;18.42;8.93;;;9.60;99.90;;;;;;5114485;28;20043;-76
2022/04/19 06:49:51;;;;;;;19.50;9.40;;;9.70;99.90;;;;;;5115597;28;20047;-75
2022/04/19 06:52:16;;;;;;;17.27;8.88;;;9.70;99.90;;;;;;5133570;27;20055;-74
2022/04/19 06:54:42;;;;;;;16.50;8.50;;;9.90;99.90;;;;;;5115041;28;20039;-76
2022/04/19 06:57:08;;;;;;;20.05;8.07;;;10.00;99.90;;;;;;5132289;28;20127;-75
2022/04/19 06:59:34;;;;;;;17.10;9.05;;;10.10;99.90;;;;;;5132870;28;20467;-76
2022/04/19 07:01:59;;;;;;;19.27;9.30;;;10.20;99.90;;;;;;5132171;28;20448;-76
2022/04/19 07:04:25;;;;;;;19.45;9.40;;;10.30;99.90;;;;;;5118621;27;20104;-76
2022/04/19 07:06:51;;;;;;;19.67;9.57;;;10.40;99.90;;;;;;5118904;27;20035;-74
2022/04/19 07:09:17;;;;;;;18.75;9.40;;;10.40;99.90;;;;;;5136048;27;20047;-74
2022/04/19 07:11:43;;;;;;;17.35;8.60;;;10.50;99.90;;;;;;5119715;27;20419;-75
2022/04/19 07:14:09;;;;;;;20.55;8.82;;;10.50;99.90;;;;;;5135715;27;20093;-74
2022/04/19 07:16:35;;;;;;;20.20;9.23;;;10.60;99.90;;;;;;5136910;27;20061;-73
2022/04/19 07:19:01;;;;;;;20.27;10.00;;;10.70;99.90;;;;;;5135890;27;20051;-75
2022/04/19 07:26:55;;;;;;;18.42;9.10;;;10.90;99.90;;;;;;5136157;27;20054;-77
2022/04/19 07:29:21;;;;;;;17.35;8.70;;;11.00;99.90;;;;;;5119071;27;20089;-75
2022/04/19 07:31:49;;;;;;;21.48;9.50;;;11.20;99.90;;;;;;5135726;27;20087;-75
2022/04/19 07:34:16;;;;;;;24.02;9.98;;;11.20;99.90;;;;;;5135813;27;20055;-76
2022/04/19 07:36:42;;;;;;;22.33;9.15;;;11.30;99.90;;;;;;5119528;27;20050;-76
2022/04/19 07:39:10;;;;;;;20.23;9.77;;;11.40;99.90;;;;;;5118960;27;20062;-76
2022/04/19 07:41:37;;;;;;;;;;;11.50;99.90;;;;;;5137226;27;20142;-76
2022/04/19 07:44:08;;;;;;;18.10;8.32;;;11.60;99.90;;;;;;5135191;27;20275;-76
2022/04/19 07:46:35;;;;;;;22.33;9.27;;;11.70;99.90;;;;;;5119409;27;20047;-76
2022/04/19 07:49:02;;;;;;;17.42;9.02;;;11.80;99.90;;;;;;5135125;27;20047;-75
2022/04/19 07:51:29;;;;;;;20.33;8.57;;;11.90;99.90;;;;;;5136559;27;20440;-73
2022/04/19 07:53:55;;;;;;;17.88;8.45;;;12.00;99.90;;;;;;5117966;27;20096;-75
2022/04/19 07:56:22;;;;;;;20.00;9.05;;;12.20;99.90;;;;;;5117897;27;20053;-77
2022/04/19 07:58:49;;;;;;;17.33;7.80;;;12.20;99.90;;;;;;5117959;27;20059;-75
2022/04/19 08:01:15;;;;;;;;;;;12.20;99.90;;;;;;5136364;27;20083;-75
2022/04/19 08:03:41;;;;;;;22.33;8.25;;;12.30;99.90;;;;;;5135037;27;19975;-75
2022/04/19 08:06:07;;;;;;;17.10;7.65;;;12.40;99.90;;;;;;5135965;27;20043;-73
2022/04/19 08:08:34;;;;;;;17.52;7.88;;;12.50;99.90;;;;;;5134998;27;20130;-76
2022/04/19 08:10:59;;;;;;;17.70;7.50;;;12.70;99.60;;;;;;5134887;27;20055;-74
2022/04/19 08:13:27;;;;;;;17.73;8.65;;;12.70;99.60;;;;;;5136154;27;20035;-75
2022/04/19 08:15:52;;;;;;;;;;;12.80;99.90;;;;;;5135752;27;20089;-74
2022/04/19 08:18:19;;;;;;;14.00;6.30;;;13.00;99.90;;;;;;5136068;27;19974;-72
2022/04/19 08:20:45;;;;;;;16.10;6.25;;;13.10;99.90;;;;;;5135609;27;20046;-74
2022/04/19 08:23:12;;;;;;;12.35;5.75;;;13.20;99.40;;;;;;5117807;27;20058;-73
2022/04/19 08:25:39;;;;;;;12.50;5.28;;;13.30;98.50;;;;;;5118086;27;20045;-76
2022/04/19 08:28:06;;;;;;;;;;;13.40;97.60;;;;;;5134955;27;20035;-76
2022/04/19 08:30:32;;;;;;;11.15;5.00;;;13.50;97.40;;;;;;5134559;27;19920;-76
2022/04/19 08:32:58;;;;;;;9.50;4.63;;;13.60;94.60;;;;;;5117215;27;20051;-75
2022/04/19 08:35:24;;;;;;;11.70;4.88;;;13.60;94.60;;;;;;5134719;27;20051;-73
2022/04/19 08:37:52;;;;;;;12.13;4.85;;;13.70;94.30;;;;;;5135313;27;20090;-74
2022/04/19 08:40:19;;;;;;;9.98;4.57;;;13.80;94.40;;;;;;5134532;27;20051;-75
2022/04/19 08:42:45;;;;;;;13.10;5.63;;;13.80;94.70;;;;;;5117099;27;20215;-76
2022/04/19 08:45:14;;;;;;;15.95;6.10;;;13.90;92.60;;;;;;5117692;27;20051;-76
2022/04/19 08:47:42;;;;;;;12.25;5.72;;;14.00;92.60;;;;;;5134629;27;20136;-74
2022/04/19 08:50:11;;;;;;;11.48;5.40;;;14.20;93.30;;;;;;5100218;27;20047;-75
2022/04/19 08:52:38;;;;;;;11.15;5.68;;;14.20;92.70;;;;;;5133973;27;20106;-75
2022/04/19 08:57:54;;;;;;;14.35;6.82;;;14.30;92.90;;;;;;5135137;27;20096;-75
2022/04/19 09:00:22;;;;;;;15.00;6.75;;;14.40;93.00;;;;;;5134996;27;20143;-75
2022/04/19 09:02:53;;;;;;;16.40;8.00;;;14.50;93.00;;;;;;5135924;27;20047;-75
2022/04/19 09:05:26;;;;;;;14.45;7.15;;;14.40;92.90;;;;;;5117188;27;20188;-74
2022/04/19 09:07:55;;;;;;;14.50;7.03;;;14.50;93.30;;;;;;5135369;27;20535;-76
2022/04/19 09:10:35;;;;;;;15.63;6.93;;;14.60;92.50;;;;;;5134431;27;20066;-74
2022/04/19 09:13:05;;;;;;;14.88;6.45;;;14.40;92.50;;;;;;5134721;27;20051;-75
2022/04/19 09:15:45;;;;;;;11.23;5.05;;;14.50;91.90;;;;;;5135794;27;20428;-74
2022/04/19 09:18:29;;;;;;;14.23;5.45;;;14.50;90.00;;;;;;5101200;27;20100;-74
2022/04/19 09:20:57;;;;;;;12.77;5.95;;;14.50;91.10;;;;;;5135535;27;20047;-72
2022/04/19 09:23:25;;;;;;;13.02;6.57;;;14.50;91.00;;;;;;5138992;27;20103;-75
2022/04/19 09:25:59;;;;;;;13.13;6.38;;;14.50;90.50;;;;;;5137952;27;20126;-74
2022/04/19 09:28:26;;;;;;;13.50;6.07;;;14.50;90.20;;;;;;5137382;27;20078;-74
2022/04/19 09:30:56;;;;;;;14.32;6.50;;;14.50;90.80;;;;;;5135873;27;20057;-75
2022/04/19 09:33:24;;;;;;;16.58;7.35;;;14.50;90.10;;;;;;5137261;27;20379;-73
2022/04/19 09:35:55;;;;;;;17.63;6.72;;;14.60;91.00;;;;;;5105971;27;20055;-75
2022/04/19 09:38:37;;;;;;;15.00;6.55;;;14.50;90.80;;;;;;5141507;27;20047;-75
2022/04/19 09:41:04;;;;;;;15.88;7.35;;;14.70;91.10;;;;;;5118096;27;20046;-76
2022/04/19 09:43:30;;;;;;;11.48;4.30;;;14.70;91.10;;;;;;5150925;27;20467;-75
2022/04/19 09:46:03;;;;;;;9.57;3.65;;;14.80;90.20;;;;;;5104313;27;20042;-73
2022/04/19 09:48:36;;;;;;;9.15;4.18;;;14.80;88.00;;;;;;5139594;27;20055;-77
2022/04/19 09:51:12;;;;;;;8.20;3.20;;;14.90;82.80;;;;;;5140768;27;20043;-74
2022/04/19 09:53:46;;;;;;;5.90;2.65;;;14.90;84.60;;;;;;5139270;27;20086;-75
2022/04/19 09:56:17;;;;;;;6.68;1.95;;;14.90;82.40;;;;;;5140149;27;20420;-74
2022/04/19 09:58:47;;;;;;;4.75;1.67;;;14.90;79.00;;;;;;5120636;27;20054;-74
2022/04/19 10:09:36;;;;;;;9.32;1.45;;;15.00;73.50;;;;;;5136138;27;20054;-75
2022/04/19 10:12:07;;;;;;;3.67;1.45;;;15.00;69.70;;;;;;5136506;27;20046;-76
2022/04/19 10:14:35;;;;;;;5.72;1.75;;;15.00;70.00;;;;;;5136461;27;20160;-73
2022/04/19 10:17:03;;;;;;;8.35;3.22;;;15.10;65.50;;;;;;5137158;27;20070;-78
2022/04/19 10:19:30;;;;;;;8.82;3.03;;;15.20;70.10;;;;;;5154614;27;20047;-75
2022/04/19 10:21:59;;;;;;;6.28;2.72;;;15.20;71.90;;;;;;5136323;27;20051;-73
2022/04/19 10:24:28;;;;;;;7.28;2.47;;;15.30;71.10;;;;;;5136420;27;20042;-74
2022/04/19 10:26:54;;;;;;;8.13;2.42;;;15.30;68.50;;;;;;5137085;27;20038;-74
2022/04/19 10:29:37;;;;;;;4.80;1.88;;;15.40;69.20;;;;;;5154387;27;20091;-76
2022/04/19 10:32:07;;;;;;;6.60;2.22;;;15.40;67.20;;;;;;5136503;27;20046;-75
2022/04/19 10:34:35;;;;;;;8.20;2.72;;;15.50;64.50;;;;;;5136671;27;20085;-75
2022/04/19 10:37:20;;;;;;;6.60;2.42;;;15.50;65.60;;;;;;5155527;27;20114;-74
2022/04/19 10:39:48;;;;;;;7.05;3.10;;;15.50;67.10;;;;;;5159950;27;20042;-73
2022/04/19 10:42:32;;;;;;;6.05;2.53;;;15.50;66.50;;;;;;5140265;27;20487;-74
2022/04/19 10:45:19;;;;;;;5.38;2.60;;;15.60;66.90;;;;;;5159391;27;20047;-75
2022/04/19 10:47:50;;;;;;;;;;;15.70;64.20;;;;;;5124544;27;20114;-75
2022/04/19 10:50:29;;;;;;;2.88;1.00;;;15.70;64.50;;;;;;5140506;27;20021;-75
2022/04/19 10:53:07;;;;;;;4.20;1.08;;;15.80;57.90;;;;;;5141554;27;20130;-75
2022/04/19 10:55:56;;;;;;;4.75;1.52;;;15.80;57.00;;;;;;5124529;27;20177;-78
2022/04/19 10:58:41;;;;;;;6.38;1.70;;;15.80;56.40;;;;;;5159328;27;20074;-73
2022/04/19 11:01:28;;;;;;;4.93;1.67;;;15.70;58.70;;;;;;5140068;27;20062;-75
2022/04/19 11:03:56;;;;;;;6.00;1.92;;;15.70;59.50;;;;;;5159223;27;20039;-75
2022/04/19 11:06:31;;;;;;;6.10;1.88;;;15.80;60.20;;;;;;5139963;27;20439;-75
2022/04/19 11:09:09;;;;;;;5.47;2.20;;;15.80;59.80;;;;;;5158331;27;20084;-74
2022/04/19 11:11:51;;;;;;;7.43;2.03;;;15.90;60.40;;;;;;5139358;27;20501;-76
2022/04/19 11:14:40;;;;;;;4.47;1.90;;;15.90;59.30;;;;;;5139625;27;20466;-73
2022/04/19 11:17:18;;;;;;;4.55;1.63;;;15.90;61.80;;;;;;5122309;27;20042;-73
2022/04/19 11:19:55;;;;;;;4.43;1.23;;;16.00;60.30;;;;;;5123090;27;20085;-74
2022/04/19 11:22:43;;;;;;;3.75;1.50;;;16.00;58.90;;;;;;5123092;27;20046;-72
2022/04/19 11:25:09;;;;;;;6.15;1.70;;;16.00;58.90;;;;;;5139141;27;20051;-74
2022/04/19 11:28:01;;;;;;;7.38;1.48;;;16.10;60.60;;;;;;5139750;27;20049;-74
2022/04/19 11:30:28;;;;;;;5.78;1.30;;;16.10;60.30;;;;;;5122106;27;20054;-74
2022/04/19 11:32:58;;;;;;;4.93;1.85;;;16.10;59.80;;;;;;5122176;27;20039;-75
2022/04/19 11:35:32;;;;;;;3.08;1.35;;;16.20;60.20;;;;;;5139122;27;20043;-75
2022/04/19 11:38:02;;;;;;;5.28;1.45;;;16.10;59.70;;;;;;5139811;27;20559;-75
2022/04/19 11:48:50;;;;;;;4.57;1.60;;;16.30;61.70;;;;;;5124581;27;20061;-75
2022/04/19 11:51:23;;;;;;;3.05;1.13;;;16.40;59.80;;;;;;5139067;27;20072;-74
2022/04/19 11:53:50;;;;;;;3.45;1.20;;;16.30;61.00;;;;;;5138881;27;20087;-72
2022/04/19 11:56:16;;;;;;;4.32;1.00;;;16.40;61.40;;;;;;5139510;27;20047;-75
2022/04/19 11:58:52;;;;;;;6.93;1.30;;;16.50;60.60;;;;;;5138949;27;20058;-77
2022/04/19 12:01:18;;;;;;;3.25;0.93;;;16.50;60.30;;;;;;5139570;27;20054;-71
2022/04/19 12:03:44;;;;;;;3.90;1.63;;;16.50;61.20;;;;;;5157147;27;20046;-74
2022/04/19 12:06:15;;;;;;;5.82;1.10;;;16.40;61.40;;;;;;5138341;27;20050;-73
2022/04/19 12:08:43;;;;;;;3.55;1.05;;;16.40;61.40;;;;;;5121189;27;20099;-74
2022/04/19 12:11:12;;;;;;;5.43;1.60;;;16.40;60.90;;;;;;5138375;27;20430;-75
2022/04/19 12:13:41;;;;;;;3.95;1.40;;;16.50;62.40;;;;;;5138034;27;20512;-74
2022/04/19 12:16:09;;;;;;;5.85;1.10;;;16.50;61.90;;;;;;5138116;27;20059;-73
2022/04/19 12:18:38;;;;;;;3.83;1.00;;;16.60;62.70;;;;;;5157112;27;20117;-74
2022/04/19 12:21:06;;;;;;;3.72;1.10;;;16.70;60.70;;;;;;5156738;27;20039;-75
2022/04/19 12:23:34;;;;;;;4.45;1.33;;;16.70;60.40;;;;;;5120902;27;20051;-73
2022/04/19 12:26:08;;;;;;;4.78;1.42;;;16.70;60.30;;;;;;5121532;27;20082;-74
2022/04/19 12:28:42;;;;;;;6.75;1.50;;;16.70;60.50;;;;;;5137637;27;20504;-74
2022/04/19 12:31:27;;;;;;;4.68;1.48;;;16.60;60.10;;;;;;5121442;27;20054;-75
2022/04/19 12:33:54;;;;;;;4.70;1.30;;;16.60;61.60;;;;;;5156966;27;20046;-74
2022/04/19 12:36:25;;;;;;;7.72;1.42;;;16.70;61.40;;;;;;5156977;27;20082;-75
2022/04/19 12:39:02;;;;;;;3.08;1.35;;;16.80;61.40;;;;;;5121213;27;20431;-72
2022/04/19 12:41:45;;;;;;;4.10;1.60;;;16.80;60.50;;;;;;5137648;27;20157;-74
2022/04/19 12:44:15;;;;;;;6.28;1.55;;;16.80;60.60;;;;;;5138088;27;20054;-77
2022/04/19 12:46:47;;;;;;;6.10;1.48;;;16.90;59.20;;;;;;5138004;27;20047;-75
2022/04/19 12:49:44;;;;;;;4.30;1.90;;;16.90;61.20;;;;;;5138401;27;20054;-75
2022/04/19 12:52:10;;;;;;;6.97;1.83;;;16.90;60.30;;;;;;5117834;27;20163;-77
2022/04/19 12:54:38;;;;;;;4.55;1.85;;;16.90;60.30;;;;;;5139091;27;20147;-75
2022/04/19 12:57:09;;;;;;;4.75;1.45;;;17.00;60.30;;;;;;5137831;27;20050;-75
2022/04/19 12:59:35;;;;;;;4.20;1.50;;;17.10;59.00;;;;;;5156997;27;20109;-77
2022/04/19 13:02:01;;;;;;;11.30;2.13;;;17.10;59.00;;;;;;5157500;27;20039;-76
2022/04/19 13:04:28;;;;;;;6.13;1.88;;;17.10;60.80;;;;;;5141409;27;20046;-76
2022/04/19 13:12:26;;;;;;;4.78;1.48;;;17.20;58.80;;;;;;5124052;27;20042;-75
2022/04/19 13:14:55;;;;;;;4.47;1.52;;;17.20;58.40;;;;;;5161298;27;20070;-74
2022/04/19 13:17:22;;;;;;;3.47;1.27;;;17.10;58.60;;;;;;5161673;27;20043;-74
2022/04/19 13:19:48;;;;;;;7.47;1.70;;;17.20;58.20;;;;;;5145905;27;20057;-75
2022/04/19 13:22:14;;;;;;;5.55;1.60;;;17.30;56.90;;;;;;5146253;27;20042;-75
2022/04/19 13:24:42;;;;;;;3.83;1.73;;;17.30;56.50;;;;;;5161763;27;20046;-75
2022/04/19 13:27:09;;;;;;;4.85;1.25;;;17.30;57.20;;;;;;5145501;27;20303;-75
2022/04/19 13:29:36;;;;;;;4.95;1.80;;;17.20;57.40;;;;;;5142015;27;20053;-75
2022/04/19 13:32:02;;;;;;;3.70;1.40;;;17.20;57.70;;;;;;5139397;27;20074;-76